sensor_id;sensor_type;location;lat;lon;timestamp;temperature;humidity
19044;DHT22;9654;52.302;8.120;2024-03-22T00:02:07;9.70;99.90
19044;DHT22;9654;52.302;8.120;2024-03-22T00:04:33;9.60;99.90
19044;DHT22;9654;52.302;8.120;2024-03-22T00:07:00;9.60;99.90
19044;DHT22;9654;52.302;8.120;2024-03-22T00:09:26;9.60;99.90
19044;DHT22;9654;52.302;8.120;2024-03-22T00:11:53;9.60;99.90
19044;DHT22;9654;52.302;8.120;2024-03-22T00:14:19;9.60;99.90
19044;DHT22;9654;52.302;8.120;2024-03-22T00:16:47;9.60;99.90
19044;DHT22;9654;52.302;8.120;2024-03-22T00:19:14;9.60;99.90
19044;DHT22;9654;52.302;8.120;2024-03-22T00:21:40;9.60;99.90
19044;DHT22;9654;52.302;8.120;2024-03-22T00:24:06;9.60;99.90
19044;DHT22;9654;52.302;8.120;2024-03-22T00:26:33;9.60;99.90
19044;DHT22;9654;52.302;8.120;2024-03-22T00:28:59;9.60;99.90
19044;DHT22;9654;52.302;8.120;2024-03-22T00:31:26;9.60;99.90
19044;DHT22;9654;52.302;8.120;2024-03-22T00:33:53;9.60;99.90
19044;DHT22;9654;52.302;8.120;2024-03-22T00:36:20;9.60;99.90
19044;DHT22;9654;52.302;8.120;2024-03-22T00:38:46;9.60;99.90
19044;DHT22;9654;52.302;8.120;2024-03-22T00:41:13;9.70;99.90
19044;DHT22;9654;52.302;8.120;2024-03-22T00:43:39;9.70;99.90
19044;DHT22;9654;52.302;8.120;2024-03-22T00:46:08;9.70;99.90
19044;DHT22;9654;52.302;8.120;2024-03-22T00:48:33;9.70;99.90
19044;DHT22;9654;52.302;8.120;2024-03-22T00:51:03;9.80;99.90
19044;DHT22;9654;52.302;8.120;2024-03-22T00:53:29;9.80;99.90
19044;DHT22;9654;52.302;8.120;2024-03-22T00:55:56;9.80;99.90
19044;DHT22;9654;52.302;8.120;2024-03-22T00:58:25;9.80;99.90
19044;DHT22;9654;52.302;8.120;2024-03-22T01:00:52;9.90;99.90
19044;DHT22;9654;52.302;8.120;2024-03-22T01:03:18;9.90;99.90
19044;DHT22;9654;52.302;8.120;2024-03-22T01:05:45;9.90;99.90
19044;DHT22;9654;52.302;8.120;2024-03-22T01:08:13;9.90;99.90
19044;DHT22;9654;52.302;8.120;2024-03-22T01:10:40;9.90;99.90
19044;DHT22;9654;52.302;8.120;2024-03-22T01:13:06;9.90;99.90
19044;DHT22;9654;52.302;8.120;2024-03-22T01:18:55;9.90;99.90
19044;DHT22;9654;52.302;8.120;2024-03-22T01:21:22;9.90;99.90
19044;DHT22;9654;52.302;8.120;2024-03-22T01:23:52;9.90;99.90
19044;DHT22;9654;52.302;8.120;2024-03-22T01:26:18;9.90;99.90
19044;DHT22;9654;52.302;8.120;2024-03-22T01:28:44;9.90;99.90
19044;DHT22;9654;52.302;8.120;2024-03-22T01:31:11;10.00;99.90
19044;DHT22;9654;52.302;8.120;2024-03-22T01:33:37;9.90;99.90
19044;DHT22;9654;52.302;8.120;2024-03-22T01:36:04;10.00;99.90
19044;DHT22;9654;52.302;8.120;2024-03-22T01:38:30;10.00;99.90
19044;DHT22;9654;52.302;8.120;2024-03-22T01:40:59;10.00;99.90
19044;DHT22;9654;52.302;8.120;2024-03-22T01:43:24;10.00;99.90
19044;DHT22;9654;52.302;8.120;2024-03-22T01:45:51;10.00;99.90
19044;DHT22;9654;52.302;8.120;2024-03-22T01:48:17;10.00;99.90
19044;DHT22;9654;52.302;8.120;2024-03-22T01:50:45;10.00;99.90
19044;DHT22;9654;52.302;8.120;2024-03-22T01:53:11;10.00;99.90
19044;DHT22;9654;52.302;8.120;2024-03-22T01:55:38;10.00;99.90
19044;DHT22;9654;52.302;8.120;2024-03-22T01:58:06;10.00;99.90
19044;DHT22;9654;52.302;8.120;2024-03-22T02:00:33;10.00;99.90
19044;DHT22;9654;52.302;8.120;2024-03-22T02:02:59;10.00;99.90
19044;DHT22;9654;52.302;8.120;2024-03-22T02:05:26;10.00;99.90
19044;DHT22;9654;52.302;8.120;2024-03-22T02:07:52;10.10;99.90
19044;DHT22;9654;52.302;8.120;2024-03-22T02:10:19;10.10;99.90
19044;DHT22;9654;52.302;8.120;2024-03-22T02:12:45;10.10;99.90
19044;DHT22;9654;52.302;8.120;2024-03-22T02:15:13;10.10;99.90
19044;DHT22;9654;52.302;8.120;2024-03-22T02:17:39;10.00;99.90
19044;DHT22;9654;52.302;8.120;2024-03-22T02:20:07;10.10;99.90
19044;DHT22;9654;52.302;8.120;2024-03-22T02:22:33;10.00;99.90
19044;DHT22;9654;52.302;8.120;2024-03-22T02:25:01;10.00;99.90
19044;DHT22;9654;52.302;8.120;2024-03-22T02:27:27;10.00;99.90
19044;DHT22;9654;52.302;8.120;2024-03-22T02:29:54;10.00;99.90
19044;DHT22;9654;52.302;8.120;2024-03-22T02:32:20;10.00;99.90
19044;DHT22;9654;52.302;8.120;2024-03-22T02:34:47;9.90;99.90
19044;DHT22;9654;52.302;8.120;2024-03-22T02:37:13;9.90;99.90
19044;DHT22;9654;52.302;8.120;2024-03-22T02:39:40;9.90;99.90
19044;DHT22;9654;52.302;8.120;2024-03-22T02:42:07;9.90;99.90
19044;DHT22;9654;52.302;8.120;2024-03-22T02:44:34;9.90;99.90
19044;DHT22;9654;52.302;8.120;2024-03-22T02:47:00;9.90;99.90
19044;DHT22;9654;52.302;8.120;2024-03-22T02:49:27;9.90;99.90
19044;DHT22;9654;52.302;8.120;2024-03-22T02:51:52;9.80;99.90
19044;DHT22;9654;52.302;8.120;2024-03-22T02:54:19;9.90;99.90
19044;DHT22;9654;52.302;8.120;2024-03-22T02:56:45;9.80;99.90
19044;DHT22;9654;52.302;8.120;2024-03-22T02:59:13;9.90;99.90
19044;DHT22;9654;52.302;8.120;2024-03-22T03:01:39;9.90;99.90
19044;DHT22;9654;52.302;8.120;2024-03-22T03:04:06;9.90;99.90
19044;DHT22;9654;52.302;8.120;2024-03-22T03:06:32;9.90;99.90
19044;DHT22;9654;52.302;8.120;2024-03-22T03:08:59;9.90;99.90
19044;DHT22;9654;52.302;8.120;2024-03-22T03:11:25;9.90;99.90
19044;DHT22;9654;52.302;8.120;2024-03-22T03:13:51;9.80;99.90
19044;DHT22;9654;52.302;8.120;2024-03-22T03:16:19;9.90;99.90
19044;DHT22;9654;52.302;8.120;2024-03-22T03:18:45;9.80;99.90
19044;DHT22;9654;52.302;8.120;2024-03-22T03:21:11;9.80;99.90
19044;DHT22;9654;52.302;8.120;2024-03-22T03:23:38;9.90;99.90
19044;DHT22;9654;52.302;8.120;2024-03-22T03:26:04;9.90;99.90
19044;DHT22;9654;52.302;8.120;2024-03-22T03:28:31;9.90;99.90
19044;DHT22;9654;52.302;8.120;2024-03-22T03:30:57;9.90;99.90
19044;DHT22;9654;52.302;8.120;2024-03-22T03:33:25;9.90;99.90
19044;DHT22;9654;52.302;8.120;2024-03-22T03:35:51;9.90;99.90
19044;DHT22;9654;52.302;8.120;2024-03-22T03:38:18;9.90;99.90
19044;DHT22;9654;52.302;8.120;2024-03-22T03:40:44;9.90;99.90
19044;DHT22;9654;52.302;8.120;2024-03-22T03:43:10;9.90;99.90
19044;DHT22;9654;52.302;8.120;2024-03-22T03:45:37;9.90;99.90
19044;DHT22;9654;52.302;8.120;2024-03-22T03:48:04;9.90;99.90
19044;DHT22;9654;52.302;8.120;2024-03-22T03:50:31;9.90;99.90
19044;DHT22;9654;52.302;8.120;2024-03-22T03:52:58;9.90;99.90
19044;DHT22;9654;52.302;8.120;2024-03-22T03:55:24;9.90;99.90
19044;DHT22;9654;52.302;8.120;2024-03-22T03:57:51;9.90;99.90
19044;DHT22;9654;52.302;8.120;2024-03-22T04:00:18;10.00;99.90
19044;DHT22;9654;52.302;8.120;2024-03-22T04:02:45;10.00;99.90
19044;DHT22;9654;52.302;8.120;2024-03-22T04:05:11;10.00;99.90
19044;DHT22;9654;52.302;8.120;2024-03-22T04:07:39;10.00;99.90
19044;DHT22;9654;52.302;8.120;2024-03-22T04:10:08;10.00;99.90
19044;DHT22;9654;52.302;8.120;2024-03-22T04:12:35;10.00;99.90
19044;DHT22;9654;52.302;8.120;2024-03-22T04:15:01;10.00;99.90
19044;DHT22;9654;52.302;8.120;2024-03-22T04:17:28;10.00;99.90
19044;DHT22;9654;52.302;8.120;2024-03-22T04:19:54;10.00;99.90
19044;DHT22;9654;52.302;8.120;2024-03-22T04:22:21;10.10;99.90
19044;DHT22;9654;52.302;8.120;2024-03-22T04:24:48;10.10;99.90
19044;DHT22;9654;52.302;8.120;2024-03-22T04:27:15;10.10;99.90
19044;DHT22;9654;52.302;8.120;2024-03-22T04:29:41;10.10;99.90
19044;DHT22;9654;52.302;8.120;2024-03-22T04:32:08;10.10;99.90
19044;DHT22;9654;52.302;8.120;2024-03-22T04:34:33;10.10;99.90
19044;DHT22;9654;52.302;8.120;2024-03-22T04:37:01;10.10;99.90
19044;DHT22;9654;52.302;8.120;2024-03-22T04:39:28;10.10;99.90
19044;DHT22;9654;52.302;8.120;2024-03-22T04:41:56;10.10;99.90
19044;DHT22;9654;52.302;8.120;2024-03-22T04:44:23;10.10;99.90
19044;DHT22;9654;52.302;8.120;2024-03-22T04:46:50;10.10;99.90
19044;DHT22;9654;52.302;8.120;2024-03-22T04:49:17;10.10;99.90
19044;DHT22;9654;52.302;8.120;2024-03-22T04:51:43;10.10;99.90
19044;DHT22;9654;52.302;8.120;2024-03-22T04:54:10;10.10;99.90
19044;DHT22;9654;52.302;8.120;2024-03-22T04:56:36;10.10;99.90
19044;DHT22;9654;52.302;8.120;2024-03-22T04:59:04;10.10;99.90
19044;DHT22;9654;52.302;8.120;2024-03-22T05:01:30;10.10;99.90
19044;DHT22;9654;52.302;8.120;2024-03-22T05:03:57;10.10;99.90
19044;DHT22;9654;52.302;8.120;2024-03-22T05:06:23;10.10;99.90
19044;DHT22;9654;52.302;8.120;2024-03-22T05:08:50;10.10;99.90
19044;DHT22;9654;52.302;8.120;2024-03-22T05:11:15;10.10;99.90
19044;DHT22;9654;52.302;8.120;2024-03-22T05:13:42;10.10;99.90
19044;DHT22;9654;52.302;8.120;2024-03-22T05:16:10;10.10;99.90
19044;DHT22;9654;52.302;8.120;2024-03-22T05:18:38;10.20;99.90
19044;DHT22;9654;52.302;8.120;2024-03-22T05:21:04;10.20;99.90
19044;DHT22;9654;52.302;8.120;2024-03-22T05:23:31;10.20;99.90
19044;DHT22;9654;52.302;8.120;2024-03-22T05:25:57;10.20;99.90
19044;DHT22;9654;52.302;8.120;2024-03-22T05:28:25;10.20;99.90
19044;DHT22;9654;52.302;8.120;2024-03-22T05:30:51;10.30;99.90
19044;DHT22;9654;52.302;8.120;2024-03-22T05:33:19;10.30;99.90
19044;DHT22;9654;52.302;8.120;2024-03-22T05:35:45;10.30;99.90
19044;DHT22;9654;52.302;8.120;2024-03-22T05:38:12;10.30;99.90
19044;DHT22;9654;52.302;8.120;2024-03-22T05:40:37;10.30;99.90
19044;DHT22;9654;52.302;8.120;2024-03-22T05:43:05;10.30;99.90
19044;DHT22;9654;52.302;8.120;2024-03-22T05:45:31;10.40;99.90
19044;DHT22;9654;52.302;8.120;2024-03-22T05:47:58;10.40;99.90
19044;DHT22;9654;52.302;8.120;2024-03-22T05:50:25;10.40;99.90
19044;DHT22;9654;52.302;8.120;2024-03-22T05:52:52;10.40;99.90
19044;DHT22;9654;52.302;8.120;2024-03-22T05:55:18;10.50;99.90
19044;DHT22;9654;52.302;8.120;2024-03-22T05:57:44;10.50;99.90
19044;DHT22;9654;52.302;8.120;2024-03-22T06:00:11;10.50;99.90
19044;DHT22;9654;52.302;8.120;2024-03-22T06:02:39;10.50;99.90
19044;DHT22;9654;52.302;8.120;2024-03-22T06:05:05;10.50;99.90
19044;DHT22;9654;52.302;8.120;2024-03-22T06:07:33;10.60;99.90
19044;DHT22;9654;52.302;8.120;2024-03-22T06:10:07;10.60;99.90
19044;DHT22;9654;52.302;8.120;2024-03-22T06:12:35;10.60;99.90
19044;DHT22;9654;52.302;8.120;2024-03-22T06:15:01;10.60;99.90
19044;DHT22;9654;52.302;8.120;2024-03-22T06:17:31;10.60;99.90
19044;DHT22;9654;52.302;8.120;2024-03-22T06:19:58;10.70;99.90
19044;DHT22;9654;52.302;8.120;2024-03-22T06:22:25;10.70;99.90
19044;DHT22;9654;52.302;8.120;2024-03-22T06:24:52;10.70;99.90
19044;DHT22;9654;52.302;8.120;2024-03-22T06:27:19;10.70;99.90
19044;DHT22;9654;52.302;8.120;2024-03-22T06:29:45;10.70;99.90
19044;DHT22;9654;52.302;8.120;2024-03-22T06:32:13;10.80;99.90
19044;DHT22;9654;52.302;8.120;2024-03-22T06:34:38;10.80;99.90
19044;DHT22;9654;52.302;8.120;2024-03-22T06:37:05;10.80;99.90
19044;DHT22;9654;52.302;8.120;2024-03-22T06:39:31;10.80;99.90
19044;DHT22;9654;52.302;8.120;2024-03-22T06:41:59;10.80;99.90
19044;DHT22;9654;52.302;8.120;2024-03-22T06:44:25;10.90;99.90
19044;DHT22;9654;52.302;8.120;2024-03-22T06:46:52;10.90;99.90
19044;DHT22;9654;52.302;8.120;2024-03-22T06:49:18;10.90;99.90
19044;DHT22;9654;52.302;8.120;2024-03-22T06:51:45;11.00;99.90
19044;DHT22;9654;52.302;8.120;2024-03-22T06:54:11;11.00;99.90
19044;DHT22;9654;52.302;8.120;2024-03-22T06:56:38;11.00;99.90
19044;DHT22;9654;52.302;8.120;2024-03-22T06:59:05;11.00;99.90
19044;DHT22;9654;52.302;8.120;2024-03-22T07:01:32;11.10;99.90
19044;DHT22;9654;52.302;8.120;2024-03-22T07:03:58;11.10;99.90
19044;DHT22;9654;52.302;8.120;2024-03-22T07:06:25;11.10;99.90
19044;DHT22;9654;52.302;8.120;2024-03-22T07:08:51;11.10;99.90
19044;DHT22;9654;52.302;8.120;2024-03-22T07:11:17;11.20;99.90
19044;DHT22;9654;52.302;8.120;2024-03-22T07:13:43;11.20;99.90
19044;DHT22;9654;52.302;8.120;2024-03-22T07:16:11;11.30;99.90
19044;DHT22;9654;52.302;8.120;2024-03-22T07:18:37;11.30;99.90
19044;DHT22;9654;52.302;8.120;2024-03-22T07:21:04;11.30;99.90
19044;DHT22;9654;52.302;8.120;2024-03-22T07:23:30;11.30;99.90
19044;DHT22;9654;52.302;8.120;2024-03-22T07:25:57;11.40;99.90
19044;DHT22;9654;52.302;8.120;2024-03-22T07:28:23;11.40;99.90
19044;DHT22;9654;52.302;8.120;2024-03-22T07:30:50;11.40;99.90
19044;DHT22;9654;52.302;8.120;2024-03-22T07:33:18;11.50;99.90
19044;DHT22;9654;52.302;8.120;2024-03-22T07:35:44;11.50;99.90
19044;DHT22;9654;52.302;8.120;2024-03-22T07:38:10;11.50;99.90
19044;DHT22;9654;52.302;8.120;2024-03-22T07:40:37;11.60;99.90
19044;DHT22;9654;52.302;8.120;2024-03-22T07:43:03;11.60;99.90
19044;DHT22;9654;52.302;8.120;2024-03-22T07:45:32;11.60;99.90
19044;DHT22;9654;52.302;8.120;2024-03-22T07:47:58;11.70;99.90
19044;DHT22;9654;52.302;8.120;2024-03-22T07:50:26;11.80;99.90
19044;DHT22;9654;52.302;8.120;2024-03-22T07:52:52;11.80;99.90
19044;DHT22;9654;52.302;8.120;2024-03-22T07:55:19;11.80;99.90
19044;DHT22;9654;52.302;8.120;2024-03-22T07:57:45;11.80;99.90
19044;DHT22;9654;52.302;8.120;2024-03-22T08:00:13;11.80;99.90
19044;DHT22;9654;52.302;8.120;2024-03-22T08:02:39;11.80;99.90
19044;DHT22;9654;52.302;8.120;2024-03-22T08:05:06;11.80;99.90
19044;DHT22;9654;52.302;8.120;2024-03-22T08:07:34;11.90;99.90
19044;DHT22;9654;52.302;8.120;2024-03-22T08:10:01;11.90;99.90
19044;DHT22;9654;52.302;8.120;2024-03-22T08:12:27;12.00;99.90
19044;DHT22;9654;52.302;8.120;2024-03-22T08:14:54;12.10;99.90
19044;DHT22;9654;52.302;8.120;2024-03-22T08:17:21;12.20;99.90
19044;DHT22;9654;52.302;8.120;2024-03-22T08:19:48;12.20;83.40
19044;DHT22;9654;52.302;8.120;2024-03-22T08:22:14;12.30;83.00
19044;DHT22;9654;52.302;8.120;2024-03-22T08:24:42;12.30;20.70
19044;DHT22;9654;52.302;8.120;2024-03-22T08:27:08;12.20;1.00
19044;DHT22;9654;52.302;8.120;2024-03-22T08:29:35;12.20;9.60
19044;DHT22;9654;52.302;8.120;2024-03-22T08:32:00;12.20;1.00
19044;DHT22;9654;52.302;8.120;2024-03-22T08:34:30;12.20;1.00
19044;DHT22;9654;52.302;8.120;2024-03-22T08:36:55;12.20;1.00
19044;DHT22;9654;52.302;8.120;2024-03-22T08:39:22;12.10;1.00
19044;DHT22;9654;52.302;8.120;2024-03-22T08:41:51;12.10;1.00
19044;DHT22;9654;52.302;8.120;2024-03-22T08:44:18;12.00;1.00
19044;DHT22;9654;52.302;8.120;2024-03-22T08:46:44;12.00;1.00
19044;DHT22;9654;52.302;8.120;2024-03-22T08:49:11;12.10;1.00
19044;DHT22;9654;52.302;8.120;2024-03-22T08:51:37;12.10;1.00
19044;DHT22;9654;52.302;8.120;2024-03-22T08:54:04;12.10;1.00
19044;DHT22;9654;52.302;8.120;2024-03-22T08:56:30;12.10;1.00
19044;DHT22;9654;52.302;8.120;2024-03-22T08:58:59;12.10;1.00
19044;DHT22;9654;52.302;8.120;2024-03-22T09:01:25;12.10;1.00
19044;DHT22;9654;52.302;8.120;2024-03-22T09:03:52;12.20;1.00
19044;DHT22;9654;52.302;8.120;2024-03-22T09:06:18;12.10;1.00
19044;DHT22;9654;52.302;8.120;2024-03-22T09:08:47;12.10;1.00
19044;DHT22;9654;52.302;8.120;2024-03-22T09:11:13;12.10;4.10
19044;DHT22;9654;52.302;8.120;2024-03-22T09:13:40;12.00;18.30
19044;DHT22;9654;52.302;8.120;2024-03-22T09:16:07;12.00;32.20
19044;DHT22;9654;52.302;8.120;2024-03-22T09:18:34;11.90;48.70
19044;DHT22;9654;52.302;8.120;2024-03-22T09:21:01;11.90;44.30
19044;DHT22;9654;52.302;8.120;2024-03-22T09:23:28;12.00;9.00
19044;DHT22;9654;52.302;8.120;2024-03-22T09:25:54;12.00;1.00
19044;DHT22;9654;52.302;8.120;2024-03-22T09:28:20;12.10;1.00
19044;DHT22;9654;52.302;8.120;2024-03-22T09:30:46;12.20;1.00
19044;DHT22;9654;52.302;8.120;2024-03-22T09:33:15;12.30;1.00
19044;DHT22;9654;52.302;8.120;2024-03-22T09:35:42;12.30;1.00
19044;DHT22;9654;52.302;8.120;2024-03-22T09:38:09;12.30;1.00
19044;DHT22;9654;52.302;8.120;2024-03-22T09:40:38;12.40;1.00
19044;DHT22;9654;52.302;8.120;2024-03-22T09:43:07;12.50;1.00
19044;DHT22;9654;52.302;8.120;2024-03-22T09:45:34;12.50;1.00
19044;DHT22;9654;52.302;8.120;2024-03-22T09:48:01;12.50;1.00
19044;DHT22;9654;52.302;8.120;2024-03-22T09:50:30;12.60;1.00
19044;DHT22;9654;52.302;8.120;2024-03-22T09:52:56;12.70;99.90
19044;DHT22;9654;52.302;8.120;2024-03-22T09:55:24;12.70;99.90
19044;DHT22;9654;52.302;8.120;2024-03-22T09:57:50;12.70;99.90
19044;DHT22;9654;52.302;8.120;2024-03-22T10:00:19;12.80;1.00
19044;DHT22;9654;52.302;8.120;2024-03-22T10:02:46;12.70;99.90
19044;DHT22;9654;52.302;8.120;2024-03-22T10:05:14;12.70;99.90
19044;DHT22;9654;52.302;8.120;2024-03-22T10:07:43;12.70;99.90
19044;DHT22;9654;52.302;8.120;2024-03-22T10:10:10;12.70;99.90
19044;DHT22;9654;52.302;8.120;2024-03-22T10:12:36;12.70;99.90
19044;DHT22;9654;52.302;8.120;2024-03-22T10:15:04;12.80;99.90
19044;DHT22;9654;52.302;8.120;2024-03-22T10:17:30;12.70;99.90
19044;DHT22;9654;52.302;8.120;2024-03-22T10:19:57;12.70;99.90
19044;DHT22;9654;52.302;8.120;2024-03-22T10:22:23;12.60;33.90
19044;DHT22;9654;52.302;8.120;2024-03-22T10:24:52;12.50;99.90
19044;DHT22;9654;52.302;8.120;2024-03-22T10:27:19;12.50;99.90
19044;DHT22;9654;52.302;8.120;2024-03-22T10:29:46;12.40;99.90
19044;DHT22;9654;52.302;8.120;2024-03-22T10:32:13;12.30;1.00
19044;DHT22;9654;52.302;8.120;2024-03-22T10:34:40;12.20;1.00
19044;DHT22;9654;52.302;8.120;2024-03-22T10:37:08;12.10;1.00
19044;DHT22;9654;52.302;8.120;2024-03-22T10:39:38;12.10;1.00
19044;DHT22;9654;52.302;8.120;2024-03-22T10:42:06;12.00;1.00
19044;DHT22;9654;52.302;8.120;2024-03-22T10:44:33;12.00;1.00
19044;DHT22;9654;52.302;8.120;2024-03-22T10:47:01;12.00;1.00
19044;DHT22;9654;52.302;8.120;2024-03-22T10:49:33;12.00;1.00
19044;DHT22;9654;52.302;8.120;2024-03-22T10:52:02;12.00;1.00
19044;DHT22;9654;52.302;8.120;2024-03-22T10:54:35;12.00;1.00
19044;DHT22;9654;52.302;8.120;2024-03-22T10:57:02;11.90;1.00
19044;DHT22;9654;52.302;8.120;2024-03-22T10:59:34;11.90;1.00
19044;DHT22;9654;52.302;8.120;2024-03-22T11:02:03;11.80;1.00
19044;DHT22;9654;52.302;8.120;2024-03-22T11:04:32;11.70;1.00
19044;DHT22;9654;52.302;8.120;2024-03-22T11:06:59;11.50;1.00
19044;DHT22;9654;52.302;8.120;2024-03-22T11:09:26;11.40;94.60
19044;DHT22;9654;52.302;8.120;2024-03-22T11:11:53;11.30;99.90
19044;DHT22;9654;52.302;8.120;2024-03-22T11:14:20;11.20;99.90
19044;DHT22;9654;52.302;8.120;2024-03-22T11:16:48;11.20;99.90
19044;DHT22;9654;52.302;8.120;2024-03-22T11:19:15;11.10;99.90
19044;DHT22;9654;52.302;8.120;2024-03-22T11:21:41;11.10;99.90
19044;DHT22;9654;52.302;8.120;2024-03-22T11:24:08;11.00;99.90
19044;DHT22;9654;52.302;8.120;2024-03-22T11:26:34;11.00;99.90
19044;DHT22;9654;52.302;8.120;2024-03-22T11:29:01;11.00;99.90
19044;DHT22;9654;52.302;8.120;2024-03-22T11:31:27;10.90;99.90
19044;DHT22;9654;52.302;8.120;2024-03-22T11:33:56;10.80;99.90
19044;DHT22;9654;52.302;8.120;2024-03-22T11:36:22;10.80;99.90
19044;DHT22;9654;52.302;8.120;2024-03-22T11:38:49;10.70;99.90
19044;DHT22;9654;52.302;8.120;2024-03-22T11:41:17;10.60;99.90
19044;DHT22;9654;52.302;8.120;2024-03-22T11:43:46;10.70;99.90
19044;DHT22;9654;52.302;8.120;2024-03-22T11:46:13;10.70;99.90
19044;DHT22;9654;52.302;8.120;2024-03-22T11:48:41;10.60;99.90
19044;DHT22;9654;52.302;8.120;2024-03-22T11:51:08;10.60;99.90
19044;DHT22;9654;52.302;8.120;2024-03-22T11:53:36;10.60;99.90
19044;DHT22;9654;52.302;8.120;2024-03-22T11:56:03;10.60;99.90
19044;DHT22;9654;52.302;8.120;2024-03-22T11:58:30;10.60;99.90
19044;DHT22;9654;52.302;8.120;2024-03-22T12:00:56;10.70;99.90
19044;DHT22;9654;52.302;8.120;2024-03-22T12:03:23;10.70;99.90
19044;DHT22;9654;52.302;8.120;2024-03-22T12:05:49;10.70;99.90
19044;DHT22;9654;52.302;8.120;2024-03-22T12:08:19;10.70;99.90
19044;DHT22;9654;52.302;8.120;2024-03-22T12:10:46;10.70;99.90
19044;DHT22;9654;52.302;8.120;2024-03-22T12:13:14;10.70;99.90
19044;DHT22;9654;52.302;8.120;2024-03-22T12:15:41;10.70;99.90
19044;DHT22;9654;52.302;8.120;2024-03-22T12:18:07;10.70;99.90
19044;DHT22;9654;52.302;8.120;2024-03-22T12:20:34;10.70;99.90
19044;DHT22;9654;52.302;8.120;2024-03-22T12:23:00;10.70;99.90
19044;DHT22;9654;52.302;8.120;2024-03-22T12:25:28;10.70;99.90
19044;DHT22;9654;52.302;8.120;2024-03-22T12:27:54;10.70;99.90
19044;DHT22;9654;52.302;8.120;2024-03-22T12:30:22;10.70;99.90
19044;DHT22;9654;52.302;8.120;2024-03-22T12:32:47;10.70;99.90
19044;DHT22;9654;52.302;8.120;2024-03-22T12:35:16;10.60;99.90
19044;DHT22;9654;52.302;8.120;2024-03-22T12:37:42;10.60;99.90
19044;DHT22;9654;52.302;8.120;2024-03-22T12:40:12;10.60;99.90
19044;DHT22;9654;52.302;8.120;2024-03-22T12:42:41;10.60;99.90
19044;DHT22;9654;52.302;8.120;2024-03-22T12:45:08;10.60;99.90
19044;DHT22;9654;52.302;8.120;2024-03-22T12:47:34;10.50;99.90
19044;DHT22;9654;52.302;8.120;2024-03-22T12:50:01;10.60;99.90
19044;DHT22;9654;52.302;8.120;2024-03-22T12:52:27;10.50;99.90
19044;DHT22;9654;52.302;8.120;2024-03-22T12:54:54;10.50;99.90
19044;DHT22;9654;52.302;8.120;2024-03-22T12:57:20;10.50;99.90
19044;DHT22;9654;52.302;8.120;2024-03-22T12:59:48;10.50;99.90
19044;DHT22;9654;52.302;8.120;2024-03-22T13:02:14;10.50;99.90
19044;DHT22;9654;52.302;8.120;2024-03-22T13:04:41;10.50;99.90
19044;DHT22;9654;52.302;8.120;2024-03-22T13:07:08;10.40;99.90
19044;DHT22;9654;52.302;8.120;2024-03-22T13:09:36;10.40;99.90
19044;DHT22;9654;52.302;8.120;2024-03-22T13:12:01;10.40;99.90
19044;DHT22;9654;52.302;8.120;2024-03-22T13:14:28;10.40;99.90
19044;DHT22;9654;52.302;8.120;2024-03-22T13:16:56;10.40;99.90
19044;DHT22;9654;52.302;8.120;2024-03-22T13:19:22;10.40;99.90
19044;DHT22;9654;52.302;8.120;2024-03-22T13:21:49;10.40;99.90
19044;DHT22;9654;52.302;8.120;2024-03-22T13:24:16;10.30;99.90
19044;DHT22;9654;52.302;8.120;2024-03-22T13:26:42;10.30;99.90
19044;DHT22;9654;52.302;8.120;2024-03-22T13:29:10;10.30;99.90
19044;DHT22;9654;52.302;8.120;2024-03-22T13:31:35;10.30;99.90
19044;DHT22;9654;52.302;8.120;2024-03-22T13:34:04;10.30;99.90
19044;DHT22;9654;52.302;8.120;2024-03-22T13:36:30;10.30;99.90
19044;DHT22;9654;52.302;8.120;2024-03-22T13:38:58;10.30;99.90
19044;DHT22;9654;52.302;8.120;2024-03-22T13:41:24;10.30;99.90
19044;DHT22;9654;52.302;8.120;2024-03-22T13:43:51;10.30;99.90
19044;DHT22;9654;52.302;8.120;2024-03-22T13:46:17;10.30;99.90
19044;DHT22;9654;52.302;8.120;2024-03-22T13:48:43;10.40;99.90
19044;DHT22;9654;52.302;8.120;2024-03-22T13:51:11;10.30;99.90
19044;DHT22;9654;52.302;8.120;2024-03-22T13:53:38;10.30;99.90
19044;DHT22;9654;52.302;8.120;2024-03-22T13:56:04;10.30;99.90
19044;DHT22;9654;52.302;8.120;2024-03-22T13:58:31;10.30;99.90
19044;DHT22;9654;52.302;8.120;2024-03-22T14:00:57;10.30;99.90
19044;DHT22;9654;52.302;8.120;2024-03-22T14:03:24;10.30;99.90
19044;DHT22;9654;52.302;8.120;2024-03-22T14:05:50;10.20;99.90
19044;DHT22;9654;52.302;8.120;2024-03-22T14:08:18;10.20;99.90
19044;DHT22;9654;52.302;8.120;2024-03-22T14:10:44;10.20;99.90
19044;DHT22;9654;52.302;8.120;2024-03-22T14:13:10;10.20;99.90
19044;DHT22;9654;52.302;8.120;2024-03-22T14:15:37;10.20;99.90
19044;DHT22;9654;52.302;8.120;2024-03-22T14:18:05;10.20;99.90
19044;DHT22;9654;52.302;8.120;2024-03-22T14:20:32;10.30;99.90
19044;DHT22;9654;52.302;8.120;2024-03-22T14:22:58;10.30;99.90
19044;DHT22;9654;52.302;8.120;2024-03-22T14:25:26;10.30;99.90
19044;DHT22;9654;52.302;8.120;2024-03-22T14:27:52;10.30;99.90
19044;DHT22;9654;52.302;8.120;2024-03-22T14:30:19;10.20;99.90
19044;DHT22;9654;52.302;8.120;2024-03-22T14:32:45;10.20;99.90
19044;DHT22;9654;52.302;8.120;2024-03-22T14:35:12;10.30;99.90
19044;DHT22;9654;52.302;8.120;2024-03-22T14:37:38;10.30;99.90
19044;DHT22;9654;52.302;8.120;2024-03-22T14:40:06;10.30;99.90
19044;DHT22;9654;52.302;8.120;2024-03-22T14:42:37;10.30;99.90
19044;DHT22;9654;52.302;8.120;2024-03-22T14:45:05;10.40;99.90
19044;DHT22;9654;52.302;8.120;2024-03-22T14:47:31;10.40;99.90
19044;DHT22;9654;52.302;8.120;2024-03-22T14:49:57;10.30;99.90
19044;DHT22;9654;52.302;8.120;2024-03-22T14:52:23;10.30;99.90
19044;DHT22;9654;52.302;8.120;2024-03-22T14:54:51;10.30;99.90
19044;DHT22;9654;52.302;8.120;2024-03-22T14:57:17;10.30;99.90
19044;DHT22;9654;52.302;8.120;2024-03-22T14:59:46;10.20;99.90
19044;DHT22;9654;52.302;8.120;2024-03-22T15:02:13;10.20;99.90
19044;DHT22;9654;52.302;8.120;2024-03-22T15:04:40;10.20;99.90
19044;DHT22;9654;52.302;8.120;2024-03-22T15:07:09;10.20;99.90
19044;DHT22;9654;52.302;8.120;2024-03-22T15:09:36;10.20;99.90
19044;DHT22;9654;52.302;8.120;2024-03-22T15:12:02;10.20;99.90
19044;DHT22;9654;52.302;8.120;2024-03-22T15:14:29;10.20;99.90
19044;DHT22;9654;52.302;8.120;2024-03-22T15:16:57;10.20;99.90
19044;DHT22;9654;52.302;8.120;2024-03-22T15:19:24;10.20;99.90
19044;DHT22;9654;52.302;8.120;2024-03-22T15:21:50;10.20;99.90
19044;DHT22;9654;52.302;8.120;2024-03-22T15:24:17;10.20;99.90
19044;DHT22;9654;52.302;8.120;2024-03-22T15:26:44;10.20;99.90
19044;DHT22;9654;52.302;8.120;2024-03-22T15:29:10;10.30;99.90
19044;DHT22;9654;52.302;8.120;2024-03-22T15:31:36;10.20;99.90
19044;DHT22;9654;52.302;8.120;2024-03-22T15:34:04;10.20;99.90
19044;DHT22;9654;52.302;8.120;2024-03-22T15:36:31;10.20;99.90
19044;DHT22;9654;52.302;8.120;2024-03-22T15:38:57;10.20;99.90
19044;DHT22;9654;52.302;8.120;2024-03-22T15:41:23;10.10;99.90
19044;DHT22;9654;52.302;8.120;2024-03-22T15:43:50;10.10;99.90
19044;DHT22;9654;52.302;8.120;2024-03-22T15:46:16;10.10;99.90
19044;DHT22;9654;52.302;8.120;2024-03-22T15:48:44;10.20;99.90
19044;DHT22;9654;52.302;8.120;2024-03-22T15:51:11;10.20;99.90